createdAt,value
2024-03-13T00:01:54.237Z,17.42
2024-03-13T00:04:20.936Z,17.73
2024-03-13T00:06:47.382Z,15.85
2024-03-13T00:09:13.936Z,17.40
2024-03-13T00:11:40.210Z,17.55
2024-03-13T00:14:06.442Z,16.30
2024-03-13T00:16:32.766Z,16.05
2024-03-13T00:18:59.308Z,15.57
2024-03-13T00:21:25.621Z,17.63
2024-03-13T00:23:51.836Z,17.55
2024-03-13T00:26:18.070Z,17.25
2024-03-13T00:28:44.296Z,17.35
2024-03-13T00:31:10.605Z,16.85
2024-03-13T00:33:36.851Z,15.27
2024-03-13T00:36:03.157Z,16.00
2024-03-13T00:38:29.413Z,15.73
2024-03-13T00:40:55.648Z,16.00
2024-03-13T00:43:21.969Z,15.95
2024-03-13T00:45:48.460Z,15.70
2024-03-13T00:48:14.727Z,17.27
2024-03-13T00:50:41.356Z,16.17
2024-03-13T00:53:07.689Z,16.35
2024-03-13T00:58:00.213Z,16.33
2024-03-13T01:00:26.439Z,16.67
2024-03-13T01:02:52.675Z,16.15
2024-03-13T01:05:18.915Z,16.38
2024-03-13T01:07:48.272Z,16.52
2024-03-13T01:10:14.540Z,14.70
2024-03-13T01:12:40.805Z,15.02
2024-03-13T01:15:07.464Z,15.77
2024-03-13T01:17:33.766Z,15.15
2024-03-13T01:20:00.010Z,15.57
2024-03-13T01:22:26.301Z,15.88
2024-03-13T01:24:52.587Z,15.88
2024-03-13T01:27:18.845Z,14.90
2024-03-13T01:29:45.094Z,16.25
2024-03-13T01:32:11.317Z,14.23
2024-03-13T01:34:37.538Z,15.80
2024-03-13T01:37:03.822Z,15.57
2024-03-13T01:39:30.069Z,15.93
2024-03-13T01:41:56.319Z,16.08
2024-03-13T01:44:22.576Z,17.90
2024-03-13T01:46:48.923Z,16.48
2024-03-13T01:49:20.310Z,17.55
2024-03-13T01:51:49.541Z,15.32
2024-03-13T01:54:16.525Z,15.57
2024-03-13T01:56:43.054Z,15.43
2024-03-13T01:59:09.280Z,14.90
2024-03-13T02:01:35.586Z,15.75
2024-03-13T02:04:01.943Z,16.10
2024-03-13T02:06:28.357Z,15.30
2024-03-13T02:08:54.605Z,16.20
2024-03-13T02:11:20.858Z,17.05
2024-03-13T02:13:47.119Z,15.07
2024-03-13T02:16:13.389Z,15.15
2024-03-13T02:18:39.632Z,15.15
2024-03-13T02:21:05.872Z,15.57
2024-03-13T02:23:32.183Z,15.23
2024-03-13T02:25:58.992Z,16.17
2024-03-13T02:28:31.463Z,16.08
2024-03-13T02:30:57.810Z,16.90
2024-03-13T02:33:24.103Z,15.45
2024-03-13T02:35:50.347Z,14.38
2024-03-13T02:38:16.592Z,16.05
2024-03-13T02:40:42.818Z,15.57
2024-03-13T02:43:09.084Z,15.73
2024-03-13T02:45:35.936Z,15.60
2024-03-13T02:48:02.462Z,14.43
2024-03-13T02:50:28.730Z,15.30
2024-03-13T02:52:55.130Z,15.93
2024-03-13T02:55:21.421Z,14.48
2024-03-13T02:57:47.746Z,14.35
2024-03-13T03:00:14.081Z,15.32
2024-03-13T03:02:40.323Z,15.98
2024-03-13T03:05:06.671Z,15.68
2024-03-13T03:07:33.048Z,15.27
2024-03-13T03:09:59.589Z,15.40
2024-03-13T03:12:25.940Z,15.43
2024-03-13T03:14:52.154Z,16.10
2024-03-13T03:17:18.427Z,14.85
2024-03-13T03:19:44.646Z,14.20
2024-03-13T03:22:10.931Z,15.60
2024-03-13T03:24:37.212Z,14.35
2024-03-13T03:27:03.551Z,16.83
2024-03-13T03:29:29.794Z,14.63
2024-03-13T03:31:56.032Z,15.52
2024-03-13T03:34:22.273Z,15.23
2024-03-13T03:36:48.591Z,17.35
2024-03-13T03:39:14.857Z,14.75
2024-03-13T03:41:41.128Z,16.15
2024-03-13T03:44:07.369Z,15.80
2024-03-13T03:46:33.623Z,15.65
2024-03-13T03:48:59.861Z,14.95
2024-03-13T03:51:27.759Z,15.77
2024-03-13T03:53:54.051Z,13.82
2024-03-13T03:56:20.285Z,14.43
2024-03-13T03:58:46.526Z,14.88
2024-03-13T04:01:12.875Z,14.90
2024-03-13T04:03:39.179Z,15.32
2024-03-13T04:06:05.632Z,15.07
2024-03-13T04:08:31.856Z,15.95
2024-03-13T04:10:58.149Z,16.00
2024-03-13T04:13:24.660Z,16.77
2024-03-13T04:15:51.118Z,15.65
2024-03-13T04:18:17.800Z,16.92
2024-03-13T04:20:44.302Z,15.93
2024-03-13T04:23:10.546Z,16.63
2024-03-13T04:25:36.857Z,14.68
2024-03-13T04:28:03.465Z,14.73
2024-03-13T04:30:29.703Z,16.00
2024-03-13T04:32:56.008Z,16.15
2024-03-13T04:35:22.298Z,16.92
2024-03-13T04:37:48.530Z,16.58
2024-03-13T04:40:14.798Z,15.93
2024-03-13T04:42:41.155Z,15.82
2024-03-13T04:45:07.585Z,18.25
2024-03-13T04:47:35.277Z,15.02
2024-03-13T04:50:02.644Z,16.33
2024-03-13T04:52:28.950Z,17.50
2024-03-13T04:54:55.292Z,18.45
2024-03-13T04:57:21.534Z,16.05
2024-03-13T04:59:47.816Z,15.75
2024-03-13T05:02:14.141Z,14.88
2024-03-13T05:04:40.435Z,14.77
2024-03-13T05:07:06.657Z,16.10
2024-03-13T05:09:32.923Z,16.00
2024-03-13T05:11:59.203Z,15.43
2024-03-13T05:14:25.469Z,15.30
2024-03-13T05:16:51.706Z,16.23
2024-03-13T05:19:17.967Z,14.35
2024-03-13T05:21:44.178Z,15.88
2024-03-13T05:24:10.452Z,16.30
2024-03-13T05:26:36.695Z,16.30
2024-03-13T05:29:02.916Z,15.82
2024-03-13T05:31:29.216Z,15.75
2024-03-13T05:33:55.597Z,15.18
2024-03-13T05:36:21.854Z,15.65
2024-03-13T05:38:48.095Z,15.55
2024-03-13T05:41:14.303Z,16.50
2024-03-13T05:43:40.558Z,15.75
2024-03-13T05:46:06.807Z,14.07
2024-03-13T05:48:33.059Z,15.95
2024-03-13T05:50:59.336Z,16.85
2024-03-13T05:53:25.566Z,17.77
2024-03-13T05:55:51.809Z,16.73
2024-03-13T05:58:18.041Z,17.33
2024-03-13T06:00:44.426Z,18.83
2024-03-13T06:03:10.902Z,19.67
2024-03-13T06:05:37.158Z,17.90
2024-03-13T06:08:03.459Z,20.05
2024-03-13T06:10:31.175Z,19.25
2024-03-13T06:12:57.730Z,21.65
2024-03-13T06:15:23.981Z,18.85
2024-03-13T06:17:50.229Z,24.05
2024-03-13T06:20:16.489Z,20.50
2024-03-13T06:22:42.926Z,21.65
2024-03-13T06:25:09.278Z,21.15
2024-03-13T06:27:35.855Z,23.88
2024-03-13T06:30:02.370Z,23.30
2024-03-13T06:32:28.810Z,24.80
2024-03-13T06:34:55.626Z,24.63
2024-03-13T06:37:25.040Z,23.85
2024-03-13T06:39:51.855Z,25.52
2024-03-13T06:42:18.086Z,22.85
2024-03-13T06:44:44.330Z,24.85
2024-03-13T06:47:10.659Z,23.33
2024-03-13T06:49:36.928Z,23.83
2024-03-13T06:52:03.262Z,23.10
2024-03-13T06:54:29.515Z,23.52
2024-03-13T06:56:55.737Z,23.52
2024-03-13T06:59:21.954Z,22.65
2024-03-13T07:01:48.374Z,23.45
2024-03-13T07:04:14.717Z,23.77
2024-03-13T07:06:40.999Z,22.58
2024-03-13T07:09:07.255Z,22.67
2024-03-13T07:11:33.649Z,22.45
2024-03-13T07:13:59.901Z,20.80
2024-03-13T07:16:26.208Z,22.98
2024-03-13T07:18:52.538Z,21.75
2024-03-13T07:21:18.798Z,22.55
2024-03-13T07:23:45.037Z,22.80
2024-03-13T07:26:11.300Z,19.50
2024-03-13T07:28:37.580Z,20.10
2024-03-13T07:31:03.921Z,21.42
2024-03-13T07:33:30.226Z,21.52
2024-03-13T07:35:56.457Z,21.38
2024-03-13T07:38:22.705Z,21.52
2024-03-13T07:40:48.951Z,20.58
2024-03-13T07:43:15.206Z,22.08
2024-03-13T07:45:41.456Z,20.92
2024-03-13T07:48:07.739Z,18.80
2024-03-13T07:50:34.246Z,20.85
2024-03-13T07:53:00.483Z,20.20
2024-03-13T07:55:26.737Z,20.90
2024-03-13T07:57:52.986Z,19.35
2024-03-13T08:00:19.327Z,19.15
2024-03-13T08:02:45.576Z,22.15
2024-03-13T08:05:11.795Z,19.75
2024-03-13T09:07:44.794Z,14.45
2024-03-13T09:10:11.076Z,14.60
2024-03-13T09:12:37.383Z,15.18
2024-03-13T09:15:03.827Z,15.13
2024-03-13T09:17:30.183Z,16.25
2024-03-13T09:19:56.447Z,14.50
2024-03-13T09:22:22.687Z,15.43
2024-03-13T09:24:48.918Z,16.52
2024-03-13T09:27:15.382Z,15.65
2024-03-13T09:29:41.665Z,14.40
2024-03-13T09:32:09.725Z,14.15
2024-03-13T09:34:38.938Z,15.13
2024-03-13T09:37:07.051Z,15.50
2024-03-13T09:39:33.311Z,15.40
2024-03-13T09:41:59.820Z,14.23
2024-03-13T09:44:29.537Z,14.13
2024-03-13T09:46:57.310Z,14.93
2024-03-13T09:49:24.921Z,14.48
2024-03-13T09:51:51.322Z,14.88
2024-03-13T09:54:17.899Z,14.45
2024-03-13T09:56:44.321Z,13.68
2024-03-13T09:59:10.567Z,13.02
2024-03-13T10:01:41.868Z,13.65
2024-03-13T10:04:10.985Z,15.10
2024-03-13T10:06:39.031Z,12.55
2024-03-13T10:09:05.825Z,14.18
2024-03-13T10:11:33.310Z,12.93
2024-03-13T10:14:00.066Z,13.50
2024-03-13T10:16:27.369Z,12.30
2024-03-13T10:18:54.339Z,12.93
2024-03-13T10:21:24.558Z,11.25
2024-03-13T10:23:51.142Z,10.57
2024-03-13T10:26:18.059Z,12.95
2024-03-13T10:28:44.401Z,13.60
2024-03-13T10:31:10.991Z,11.93
2024-03-13T10:33:37.408Z,13.57
2024-03-13T10:36:03.868Z,12.85
2024-03-13T10:38:30.311Z,12.85
2024-03-13T10:40:58.320Z,12.73
2024-03-13T10:43:28.534Z,12.25
2024-03-13T10:45:54.759Z,12.85
2024-03-13T10:48:21.046Z,12.18
2024-03-13T10:50:50.422Z,12.60
2024-03-13T10:53:17.338Z,11.60
2024-03-13T10:55:43.583Z,12.25
2024-03-13T10:58:19.318Z,13.13
2024-03-13T11:00:46.714Z,10.32
2024-03-13T11:03:13.040Z,14.13
2024-03-13T11:05:39.805Z,12.75
2024-03-13T11:08:10.007Z,12.82
2024-03-13T11:10:36.704Z,11.07
2024-03-13T11:13:06.372Z,12.63
2024-03-13T11:15:35.036Z,11.68
2024-03-13T11:18:02.208Z,11.68
2024-03-13T11:20:36.161Z,12.18
2024-03-13T11:23:22.699Z,11.20
2024-03-13T11:25:49.042Z,10.98
2024-03-13T11:28:35.515Z,11.07
2024-03-13T11:31:01.930Z,12.45
2024-03-13T11:33:28.403Z,12.10
2024-03-13T11:35:55.387Z,11.85
2024-03-13T11:38:22.445Z,10.98
2024-03-13T11:40:49.365Z,12.70
2024-03-13T11:43:22.011Z,11.50
2024-03-13T11:45:48.365Z,10.98
2024-03-13T11:48:15.238Z,11.63
2024-03-13T11:51:00.220Z,12.07
2024-03-13T11:53:26.569Z,10.15
2024-03-13T11:55:56.474Z,12.38
2024-03-13T11:58:22.843Z,10.88
2024-03-13T12:00:49.146Z,11.88
2024-03-13T12:03:15.629Z,10.98
2024-03-13T12:05:42.020Z,11.00
2024-03-13T12:08:13.854Z,11.00
2024-03-13T12:10:40.164Z,12.18
2024-03-13T12:13:07.669Z,10.65
2024-03-13T12:15:35.345Z,12.30
2024-03-13T12:18:01.957Z,10.93
2024-03-13T12:20:28.264Z,11.75
2024-03-13T12:22:54.538Z,11.13
2024-03-13T12:25:20.883Z,10.80
2024-03-13T12:27:47.680Z,11.77
2024-03-13T12:30:14.343Z,10.68
2024-03-13T12:32:40.966Z,10.35
2024-03-13T12:35:10.730Z,9.43
2024-03-13T12:37:37.097Z,9.77
2024-03-13T12:40:04.298Z,9.48
2024-03-13T12:42:30.578Z,9.10
2024-03-13T12:44:56.867Z,9.23
2024-03-13T12:47:23.128Z,9.10
2024-03-13T12:49:49.401Z,9.10
2024-03-13T12:52:16.072Z,9.68
2024-03-13T12:54:42.318Z,10.80
2024-03-13T12:57:11.608Z,9.30
2024-03-13T12:59:46.959Z,8.65
2024-03-13T13:02:14.078Z,9.70
2024-03-13T13:04:40.331Z,10.38
2024-03-13T13:07:07.310Z,10.55
2024-03-13T13:11:59.737Z,10.00
2024-03-13T13:14:25.984Z,10.02
2024-03-13T13:16:52.233Z,11.05
2024-03-13T13:19:18.472Z,10.40
2024-03-13T13:21:44.723Z,10.23
2024-03-13T13:24:10.979Z,9.70
2024-03-13T13:26:37.297Z,10.52
2024-03-13T13:31:32.740Z,9.32
2024-03-13T13:33:59.078Z,8.43
2024-03-13T13:36:25.520Z,8.52
2024-03-13T13:38:51.848Z,8.57
2024-03-13T13:41:18.115Z,9.52
2024-03-13T13:43:44.368Z,9.05
2024-03-13T13:46:10.766Z,8.98
2024-03-13T13:48:37.241Z,8.63
2024-03-13T13:51:03.553Z,9.60
2024-03-13T13:53:29.786Z,8.93
2024-03-13T13:55:56.557Z,9.27
2024-03-13T13:58:22.916Z,9.43
2024-03-13T14:00:49.166Z,8.82
2024-03-13T14:03:15.422Z,10.27
2024-03-13T14:05:44.380Z,8.90
2024-03-13T14:08:10.964Z,8.40
2024-03-13T14:10:37.240Z,7.45
2024-03-13T14:13:03.520Z,8.88
2024-03-13T14:15:29.825Z,7.82
2024-03-13T14:17:56.241Z,8.32
2024-03-13T14:20:23.347Z,8.98
2024-03-13T14:22:50.023Z,7.43
2024-03-13T14:25:16.334Z,8.77
2024-03-13T14:27:42.602Z,8.57
2024-03-13T14:30:09.196Z,8.85
2024-03-13T14:32:35.543Z,9.10
2024-03-13T14:35:07.955Z,8.77
2024-03-13T14:37:35.587Z,7.07
2024-03-13T14:40:01.858Z,8.88
2024-03-13T14:42:32.943Z,9.25
2024-03-13T14:45:00.100Z,9.43
2024-03-13T14:47:26.529Z,9.20
2024-03-13T14:49:53.156Z,9.05
2024-03-13T14:52:19.374Z,10.60
2024-03-13T14:54:45.613Z,9.00
2024-03-13T14:57:11.914Z,9.85
2024-03-13T14:59:38.371Z,10.38
2024-03-13T15:02:04.744Z,8.52
2024-03-13T15:04:31.061Z,8.38
2024-03-13T15:06:57.322Z,8.48
2024-03-13T15:09:23.681Z,9.95
2024-03-13T15:11:50.119Z,10.32
2024-03-13T15:14:16.379Z,11.13
2024-03-13T15:16:42.698Z,9.93
2024-03-13T15:19:09.127Z,10.52
2024-03-13T15:21:35.529Z,10.07
2024-03-13T15:24:01.859Z,11.95
2024-03-13T15:26:28.132Z,10.77
2024-03-13T15:28:57.206Z,11.35
2024-03-13T15:31:23.558Z,10.73
2024-03-13T15:33:49.988Z,10.63
2024-03-13T15:36:16.354Z,11.10
2024-03-13T15:38:42.632Z,11.05
2024-03-13T15:41:08.861Z,11.35
2024-03-13T15:43:35.094Z,11.32
2024-03-13T15:46:02.245Z,12.57
2024-03-13T15:48:28.627Z,11.15
2024-03-13T15:50:54.950Z,10.93
2024-03-13T15:53:21.211Z,10.73
2024-03-13T15:55:47.445Z,11.45
2024-03-13T15:58:13.676Z,11.25
2024-03-13T16:00:39.901Z,11.70
2024-03-13T16:03:06.297Z,13.52
2024-03-13T16:05:32.595Z,11.98
2024-03-13T16:08:07.881Z,12.15
2024-03-13T16:10:34.160Z,11.05
2024-03-13T16:13:00.382Z,11.50
2024-03-13T16:15:26.691Z,11.27
2024-03-13T16:17:52.999Z,12.80
2024-03-13T16:20:19.290Z,11.02
2024-03-13T16:22:45.557Z,11.80
2024-03-13T16:25:12.348Z,13.18
2024-03-13T16:27:38.590Z,12.30
2024-03-13T16:30:05.026Z,13.75
2024-03-13T16:32:31.469Z,12.18
2024-03-13T16:34:57.706Z,12.88
2024-03-13T16:37:23.963Z,12.93
2024-03-13T16:39:50.186Z,12.80
2024-03-13T16:42:16.470Z,13.57
2024-03-13T16:44:42.812Z,14.05
2024-03-13T16:47:10.252Z,13.88
2024-03-13T16:49:36.485Z,12.73
2024-03-13T16:52:02.779Z,14.30
2024-03-13T16:54:29.141Z,13.50
2024-03-13T16:56:55.434Z,12.05
2024-03-13T16:59:21.670Z,13.43
2024-03-13T17:01:47.990Z,14.00
2024-03-13T17:04:14.244Z,13.68
2024-03-13T17:06:40.467Z,14.57
2024-03-13T17:09:06.814Z,16.02
2024-03-13T17:11:33.090Z,16.27
2024-03-13T17:13:59.402Z,14.50
2024-03-13T17:16:25.652Z,15.00
2024-03-13T17:18:51.983Z,15.25
2024-03-13T17:21:18.372Z,14.75
2024-03-13T17:23:44.697Z,14.40
2024-03-13T17:26:10.920Z,12.10
2024-03-13T17:28:37.193Z,12.88
2024-03-13T17:31:03.477Z,13.77
2024-03-13T17:33:29.854Z,14.07
2024-03-13T17:35:56.150Z,12.02
2024-03-13T17:38:22.427Z,13.18
2024-03-13T17:40:48.661Z,13.15
2024-03-13T17:43:14.870Z,13.23
2024-03-13T17:45:41.173Z,13.68
2024-03-13T17:48:07.594Z,14.32
2024-03-13T17:50:33.900Z,14.05
2024-03-13T17:53:00.159Z,13.73
2024-03-13T17:55:26.410Z,14.50
2024-03-13T17:57:52.836Z,11.77
2024-03-13T18:00:19.105Z,14.07
2024-03-13T18:02:45.392Z,15.88
2024-03-13T18:05:11.951Z,14.32
2024-03-13T18:07:38.570Z,14.77
2024-03-13T18:10:04.988Z,16.92
2024-03-13T18:12:31.224Z,16.15
2024-03-13T18:15:00.352Z,15.45
2024-03-13T18:17:26.646Z,15.00
2024-03-13T18:19:52.916Z,14.20
2024-03-13T18:22:19.653Z,14.43
2024-03-13T18:24:45.997Z,14.40
2024-03-13T18:27:12.257Z,14.27
2024-03-13T18:29:38.534Z,14.43
2024-03-13T18:32:04.977Z,14.90
2024-03-13T18:34:34.310Z,15.27
2024-03-13T18:37:00.707Z,16.30
2024-03-13T18:39:27.105Z,14.85
2024-03-13T18:41:53.341Z,17.77
2024-03-13T18:44:19.581Z,15.93
2024-03-13T18:46:45.837Z,14.68
2024-03-13T18:49:12.236Z,15.10
2024-03-13T18:51:38.538Z,15.93
2024-03-13T18:54:04.775Z,16.35
2024-03-13T18:56:31.014Z,14.82
2024-03-13T18:58:57.306Z,15.60
2024-03-13T19:01:23.597Z,15.43
2024-03-13T19:03:50.021Z,15.05
2024-03-13T19:06:16.317Z,14.75
2024-03-13T19:08:42.633Z,15.02
2024-03-13T19:11:18.108Z,16.60
2024-03-13T19:13:47.342Z,16.73
2024-03-13T19:16:13.589Z,15.30
2024-03-13T19:18:40.222Z,17.42
2024-03-13T19:21:06.678Z,15.20
2024-03-13T19:23:32.996Z,14.90
2024-03-13T19:25:59.228Z,16.42
2024-03-13T19:28:25.477Z,14.90
2024-03-13T19:30:51.727Z,15.20
2024-03-13T19:33:18.125Z,15.82
2024-03-13T19:35:44.479Z,17.00
2024-03-13T19:38:10.789Z,17.05
2024-03-13T19:40:37.036Z,18.55
2024-03-13T19:43:03.338Z,16.98
2024-03-13T19:45:29.583Z,18.52
2024-03-13T19:47:55.908Z,17.88
2024-03-13T19:50:22.239Z,15.52
2024-03-13T19:52:48.617Z,15.10
2024-03-13T19:55:14.977Z,15.80
2024-03-13T19:57:41.428Z,17.50
2024-03-13T20:00:08.145Z,16.90
2024-03-13T20:02:34.476Z,17.08
2024-03-13T20:05:00.731Z,15.75
2024-03-13T20:07:27.011Z,15.82
2024-03-13T20:09:53.695Z,13.75
2024-03-13T20:12:20.313Z,14.57
2024-03-13T20:14:46.661Z,13.25
2024-03-13T20:17:12.928Z,14.18
2024-03-13T20:19:39.166Z,13.02
2024-03-13T20:22:05.385Z,12.07
2024-03-13T20:24:31.693Z,13.70
2024-03-13T20:26:57.986Z,11.73
2024-03-13T20:29:24.291Z,13.68
2024-03-13T20:31:50.534Z,12.38
2024-03-13T20:34:16.837Z,13.43
2024-03-13T20:36:43.097Z,14.45
2024-03-13T20:39:09.450Z,14.30
2024-03-13T20:41:35.761Z,12.07
2024-03-13T20:44:02.021Z,11.65
2024-03-13T20:46:28.290Z,13.32
2024-03-13T20:48:54.662Z,11.32
2024-03-13T20:51:20.944Z,11.82
2024-03-13T20:53:47.312Z,11.10
2024-03-13T20:56:13.623Z,11.23
2024-03-13T20:58:39.903Z,11.90
2024-03-13T21:01:06.486Z,10.65
2024-03-13T21:03:32.786Z,10.57
2024-03-13T21:05:59.113Z,10.93
2024-03-13T21:08:25.359Z,11.57
2024-03-13T21:10:51.607Z,10.38
2024-03-13T21:13:17.847Z,10.65
2024-03-13T21:15:50.023Z,10.63
2024-03-13T21:18:23.075Z,10.63
2024-03-13T21:20:49.394Z,11.05
2024-03-13T21:23:15.654Z,11.98
2024-03-13T21:25:41.912Z,11.60
2024-03-13T21:28:08.142Z,10.93
2024-03-13T21:30:34.488Z,11.70
2024-03-13T21:33:00.873Z,10.43
2024-03-13T21:35:27.170Z,9.98
2024-03-13T21:37:53.657Z,10.68
2024-03-13T21:40:19.889Z,10.93
2024-03-13T21:42:46.220Z,10.35
2024-03-13T21:45:12.677Z,11.95
2024-03-13T21:47:38.985Z,12.65
2024-03-13T21:50:05.864Z,11.50
2024-03-13T21:52:32.096Z,12.02
2024-03-13T21:54:58.306Z,10.43
2024-03-13T21:57:24.594Z,10.82
2024-03-13T21:59:50.892Z,12.77
2024-03-13T22:02:17.141Z,14.98
2024-03-13T22:04:43.396Z,12.30
2024-03-13T22:07:09.655Z,13.10
2024-03-13T22:09:36.024Z,11.95
2024-03-13T22:12:02.344Z,12.35
2024-03-13T22:14:28.683Z,12.60
2024-03-13T22:16:54.919Z,11.98
2024-03-13T22:19:21.155Z,10.65
2024-03-13T22:21:47.381Z,12.18
2024-03-13T22:24:13.604Z,11.20
2024-03-13T22:26:39.876Z,11.68
2024-03-13T22:29:06.153Z,11.23
2024-03-13T22:31:32.377Z,10.70
2024-03-13T22:33:58.727Z,11.90
2024-03-13T22:36:25.059Z,12.05
2024-03-13T22:38:51.376Z,9.88
2024-03-13T22:41:17.935Z,10.25
2024-03-13T22:43:44.143Z,10.13
2024-03-13T22:46:10.379Z,10.82
2024-03-13T22:48:36.661Z,10.75
2024-03-13T22:51:02.976Z,9.93
2024-03-13T22:53:29.250Z,10.38
2024-03-13T22:55:55.473Z,9.80
2024-03-13T22:58:21.749Z,12.07
2024-03-13T23:00:47.979Z,9.18
2024-03-13T23:03:14.224Z,9.73
2024-03-13T23:05:40.818Z,10.02
2024-03-13T23:08:07.044Z,10.60
2024-03-13T23:10:33.294Z,10.10
2024-03-13T23:12:59.543Z,9.70
2024-03-13T23:15:25.866Z,10.15
2024-03-13T23:17:52.370Z,8.93
2024-03-13T23:20:18.651Z,10.68
2024-03-13T23:22:44.949Z,9.32
2024-03-13T23:25:11.533Z,8.48
2024-03-13T23:27:38.075Z,9.95
2024-03-13T23:30:04.991Z,8.57
2024-03-13T23:32:31.330Z,9.98
2024-03-13T23:34:57.586Z,8.98
2024-03-13T23:37:23.854Z,8.63
2024-03-13T23:39:50.151Z,10.13
2024-03-13T23:42:16.917Z,9.95
2024-03-13T23:44:43.419Z,9.27
2024-03-13T23:47:10.242Z,9.18
2024-03-13T23:49:37.325Z,10.18
2024-03-13T23:52:03.638Z,9.35
2024-03-13T23:54:29.920Z,9.35
2024-03-13T23:56:56.467Z,9.25
2024-03-13T23:59:22.685Z,8.82
